sensor_id;sensor_type;location;lat;lon;timestamp;P1;durP1;ratioP1;P2;durP2;ratioP2
462;SDS011;218;51.902;9.542;2024-02-26T00:00:22;2.30;;;2.10;;
462;SDS011;218;51.902;9.542;2024-02-26T00:02:51;2.90;;;2.70;;
462;SDS011;218;51.902;9.542;2024-02-26T00:05:18;15.18;;;4.18;;
462;SDS011;218;51.902;9.542;2024-02-26T00:07:46;3.75;;;2.13;;
462;SDS011;218;51.902;9.542;2024-02-26T00:10:13;5.25;;;2.03;;
462;SDS011;218;51.902;9.542;2024-02-26T00:12:41;9.13;;;2.40;;
462;SDS011;218;51.902;9.542;2024-02-26T00:15:08;4.55;;;2.47;;
462;SDS011;218;51.902;9.542;2024-02-26T00:17:36;9.50;;;2.60;;
462;SDS011;218;51.902;9.542;2024-02-26T00:20:07;8.45;;;2.60;;
462;SDS011;218;51.902;9.542;2024-02-26T00:22:34;11.07;;;3.30;;
462;SDS011;218;51.902;9.542;2024-02-26T00:25:02;8.73;;;2.50;;
462;SDS011;218;51.902;9.542;2024-02-26T00:27:29;8.00;;;3.17;;
462;SDS011;218;51.902;9.542;2024-02-26T00:29:56;6.50;;;3.28;;
462;SDS011;218;51.902;9.542;2024-02-26T00:32:23;3.97;;;2.13;;
462;SDS011;218;51.902;9.542;2024-02-26T00:34:51;6.05;;;2.40;;
462;SDS011;218;51.902;9.542;2024-02-26T00:37:19;3.13;;;1.90;;
462;SDS011;218;51.902;9.542;2024-02-26T00:39:46;5.75;;;2.03;;
462;SDS011;218;51.902;9.542;2024-02-26T00:42:14;5.35;;;2.20;;
462;SDS011;218;51.902;9.542;2024-02-26T00:44:43;5.68;;;2.10;;
462;SDS011;218;51.902;9.542;2024-02-26T00:47:11;4.05;;;2.72;;
462;SDS011;218;51.902;9.542;2024-02-26T00:49:38;4.30;;;1.70;;
462;SDS011;218;51.902;9.542;2024-02-26T00:52:05;4.57;;;2.10;;
462;SDS011;218;51.902;9.542;2024-02-26T00:54:34;5.07;;;2.30;;
462;SDS011;218;51.902;9.542;2024-02-26T00:57:01;4.25;;;1.90;;
462;SDS011;218;51.902;9.542;2024-02-26T00:59:28;3.70;;;1.90;;
462;SDS011;218;51.902;9.542;2024-02-26T01:01:56;4.72;;;1.83;;
462;SDS011;218;51.902;9.542;2024-02-26T01:04:25;3.63;;;2.20;;
462;SDS011;218;51.902;9.542;2024-02-26T01:06:52;5.00;;;2.10;;
462;SDS011;218;51.902;9.542;2024-02-26T01:09:19;3.80;;;2.03;;
462;SDS011;218;51.902;9.542;2024-02-26T01:11:48;4.40;;;2.00;;
462;SDS011;218;51.902;9.542;2024-02-26T01:14:15;3.88;;;2.00;;
462;SDS011;218;51.902;9.542;2024-02-26T01:16:42;4.95;;;1.83;;
462;SDS011;218;51.902;9.542;2024-02-26T01:19:09;2.17;;;1.80;;
462;SDS011;218;51.902;9.542;2024-02-26T01:21:37;2.60;;;1.50;;
462;SDS011;218;51.902;9.542;2024-02-26T01:24:04;4.10;;;1.98;;
462;SDS011;218;51.902;9.542;2024-02-26T01:26:32;2.97;;;1.80;;
462;SDS011;218;51.902;9.542;2024-02-26T01:29:00;4.40;;;1.67;;
462;SDS011;218;51.902;9.542;2024-02-26T01:31:28;4.50;;;1.70;;
462;SDS011;218;51.902;9.542;2024-02-26T01:33:56;2.97;;;1.60;;
462;SDS011;218;51.902;9.542;2024-02-26T01:36:23;2.40;;;1.40;;
462;SDS011;218;51.902;9.542;2024-02-26T01:38:50;2.88;;;1.70;;
462;SDS011;218;51.902;9.542;2024-02-26T01:41:17;3.88;;;1.90;;
462;SDS011;218;51.902;9.542;2024-02-26T01:43:45;3.92;;;1.73;;
462;SDS011;218;51.902;9.542;2024-02-26T01:46:14;5.10;;;1.67;;
462;SDS011;218;51.902;9.542;2024-02-26T01:48:42;4.88;;;2.22;;
462;SDS011;218;51.902;9.542;2024-02-26T01:51:09;3.05;;;2.00;;
462;SDS011;218;51.902;9.542;2024-02-26T01:53:38;4.93;;;1.50;;
462;SDS011;218;51.902;9.542;2024-02-26T01:56:05;3.70;;;1.52;;
462;SDS011;218;51.902;9.542;2024-02-26T01:58:32;3.38;;;1.80;;
462;SDS011;218;51.902;9.542;2024-02-26T02:01:01;3.20;;;1.70;;
462;SDS011;218;51.902;9.542;2024-02-26T02:03:30;2.27;;;1.70;;
462;SDS011;218;51.902;9.542;2024-02-26T02:05:57;3.55;;;1.48;;
462;SDS011;218;51.902;9.542;2024-02-26T02:08:25;2.83;;;1.83;;
462;SDS011;218;51.902;9.542;2024-02-26T02:10:56;2.13;;;1.42;;
462;SDS011;218;51.902;9.542;2024-02-26T02:13:23;3.33;;;1.33;;
462;SDS011;218;51.902;9.542;2024-02-26T02:15:50;3.47;;;1.50;;
462;SDS011;218;51.902;9.542;2024-02-26T02:18:18;2.58;;;1.35;;
462;SDS011;218;51.902;9.542;2024-02-26T02:20:47;1.80;;;1.65;;
462;SDS011;218;51.902;9.542;2024-02-26T02:23:14;2.78;;;1.35;;
462;SDS011;218;51.902;9.542;2024-02-26T02:25:41;3.00;;;1.50;;
462;SDS011;218;51.902;9.542;2024-02-26T02:28:09;5.78;;;2.30;;
462;SDS011;218;51.902;9.542;2024-02-26T02:30:36;6.15;;;1.92;;
462;SDS011;218;51.902;9.542;2024-02-26T02:33:05;4.38;;;2.47;;
462;SDS011;218;51.902;9.542;2024-02-26T02:35:32;5.85;;;2.10;;
462;SDS011;218;51.902;9.542;2024-02-26T02:38:00;2.42;;;1.30;;
462;SDS011;218;51.902;9.542;2024-02-26T02:40:28;5.03;;;2.78;;
462;SDS011;218;51.902;9.542;2024-02-26T02:42:55;6.00;;;1.88;;
462;SDS011;218;51.902;9.542;2024-02-26T02:45:22;4.43;;;1.90;;
462;SDS011;218;51.902;9.542;2024-02-26T02:47:50;5.00;;;1.80;;
462;SDS011;218;51.902;9.542;2024-02-26T02:50:17;5.15;;;1.88;;
462;SDS011;218;51.902;9.542;2024-02-26T02:52:51;2.30;;;1.60;;
462;SDS011;218;51.902;9.542;2024-02-26T02:55:19;2.47;;;1.88;;
462;SDS011;218;51.902;9.542;2024-02-26T02:57:46;2.70;;;1.70;;
462;SDS011;218;51.902;9.542;2024-02-26T03:00:14;3.55;;;1.70;;
462;SDS011;218;51.902;9.542;2024-02-26T03:02:41;3.30;;;1.90;;
462;SDS011;218;51.902;9.542;2024-02-26T03:05:10;5.37;;;2.10;;
462;SDS011;218;51.902;9.542;2024-02-26T03:07:37;4.07;;;1.70;;
462;SDS011;218;51.902;9.542;2024-02-26T03:10:05;5.40;;;2.38;;
462;SDS011;218;51.902;9.542;2024-02-26T03:12:34;12.25;;;2.50;;
462;SDS011;218;51.902;9.542;2024-02-26T03:15:01;6.70;;;2.10;;
462;SDS011;218;51.902;9.542;2024-02-26T03:17:29;12.23;;;2.95;;
462;SDS011;218;51.902;9.542;2024-02-26T03:19:58;6.20;;;2.60;;
462;SDS011;218;51.902;9.542;2024-02-26T03:22:25;7.20;;;2.40;;
462;SDS011;218;51.902;9.542;2024-02-26T03:24:52;8.20;;;2.37;;
462;SDS011;218;51.902;9.542;2024-02-26T03:27:20;6.88;;;2.00;;
462;SDS011;218;51.902;9.542;2024-02-26T03:29:48;7.47;;;3.20;;
462;SDS011;218;51.902;9.542;2024-02-26T03:32:16;6.90;;;2.10;;
462;SDS011;218;51.902;9.542;2024-02-26T03:34:43;8.18;;;3.00;;
462;SDS011;218;51.902;9.542;2024-02-26T03:37:10;6.40;;;2.72;;
462;SDS011;218;51.902;9.542;2024-02-26T03:39:37;8.38;;;2.25;;
462;SDS011;218;51.902;9.542;2024-02-26T03:42:05;6.60;;;2.50;;
462;SDS011;218;51.902;9.542;2024-02-26T03:44:32;6.97;;;2.00;;
462;SDS011;218;51.902;9.542;2024-02-26T03:47:01;33.17;;;5.07;;
462;SDS011;218;51.902;9.542;2024-02-26T03:49:28;13.57;;;3.30;;
462;SDS011;218;51.902;9.542;2024-02-26T03:51:56;15.95;;;3.00;;
462;SDS011;218;51.902;9.542;2024-02-26T03:54:23;10.80;;;3.40;;
462;SDS011;218;51.902;9.542;2024-02-26T03:56:50;14.52;;;4.13;;
462;SDS011;218;51.902;9.542;2024-02-26T03:59:17;12.93;;;3.80;;
462;SDS011;218;51.902;9.542;2024-02-26T04:01:46;18.83;;;2.97;;
462;SDS011;218;51.902;9.542;2024-02-26T04:04:14;13.33;;;3.43;;
462;SDS011;218;51.902;9.542;2024-02-26T04:06:44;10.38;;;3.38;;
462;SDS011;218;51.902;9.542;2024-02-26T04:09:11;20.23;;;3.17;;
462;SDS011;218;51.902;9.542;2024-02-26T04:11:38;14.27;;;3.17;;
462;SDS011;218;51.902;9.542;2024-02-26T04:14:08;10.70;;;2.55;;
462;SDS011;218;51.902;9.542;2024-02-26T04:16:40;9.73;;;3.67;;
462;SDS011;218;51.902;9.542;2024-02-26T04:19:07;8.15;;;3.03;;
462;SDS011;218;51.902;9.542;2024-02-26T04:21:36;7.70;;;2.70;;
462;SDS011;218;51.902;9.542;2024-02-26T04:24:04;8.27;;;1.90;;
462;SDS011;218;51.902;9.542;2024-02-26T04:26:31;10.02;;;2.67;;
462;SDS011;218;51.902;9.542;2024-02-26T04:28:58;5.47;;;3.13;;
462;SDS011;218;51.902;9.542;2024-02-26T04:31:25;7.32;;;2.80;;
462;SDS011;218;51.902;9.542;2024-02-26T04:33:53;5.75;;;2.03;;
462;SDS011;218;51.902;9.542;2024-02-26T04:36:20;6.77;;;2.10;;
462;SDS011;218;51.902;9.542;2024-02-26T04:38:48;7.00;;;2.60;;
462;SDS011;218;51.902;9.542;2024-02-26T04:41:16;6.43;;;2.22;;
462;SDS011;218;51.902;9.542;2024-02-26T04:43:43;3.60;;;2.33;;
462;SDS011;218;51.902;9.542;2024-02-26T04:46:10;4.85;;;1.80;;
462;SDS011;218;51.902;9.542;2024-02-26T04:48:38;4.40;;;2.30;;
462;SDS011;218;51.902;9.542;2024-02-26T04:51:06;5.43;;;2.10;;
462;SDS011;218;51.902;9.542;2024-02-26T04:53:34;5.60;;;2.13;;
462;SDS011;218;51.902;9.542;2024-02-26T04:56:03;4.85;;;1.70;;
462;SDS011;218;51.902;9.542;2024-02-26T04:58:30;5.63;;;1.80;;
462;SDS011;218;51.902;9.542;2024-02-26T05:00:58;2.57;;;1.80;;
462;SDS011;218;51.902;9.542;2024-02-26T05:03:25;6.47;;;1.63;;
462;SDS011;218;51.902;9.542;2024-02-26T05:05:52;5.13;;;1.80;;
462;SDS011;218;51.902;9.542;2024-02-26T05:08:20;7.50;;;2.20;;
462;SDS011;218;51.902;9.542;2024-02-26T05:10:47;14.60;;;2.75;;
462;SDS011;218;51.902;9.542;2024-02-26T05:13:16;4.57;;;1.83;;
462;SDS011;218;51.902;9.542;2024-02-26T05:15:49;14.50;;;2.50;;
462;SDS011;218;51.902;9.542;2024-02-26T05:18:17;10.18;;;2.83;;
462;SDS011;218;51.902;9.542;2024-02-26T05:20:45;5.27;;;1.93;;
462;SDS011;218;51.902;9.542;2024-02-26T05:23:12;7.60;;;2.80;;
462;SDS011;218;51.902;9.542;2024-02-26T05:25:39;7.63;;;1.70;;
462;SDS011;218;51.902;9.542;2024-02-26T05:28:06;6.15;;;2.00;;
462;SDS011;218;51.902;9.542;2024-02-26T05:30:35;5.80;;;1.40;;
462;SDS011;218;51.902;9.542;2024-02-26T05:33:05;8.50;;;2.90;;
462;SDS011;218;51.902;9.542;2024-02-26T05:35:32;6.00;;;1.92;;
462;SDS011;218;51.902;9.542;2024-02-26T05:37:59;5.15;;;1.88;;
462;SDS011;218;51.902;9.542;2024-02-26T05:40:26;3.03;;;1.40;;
462;SDS011;218;51.902;9.542;2024-02-26T05:42:53;5.70;;;1.60;;
462;SDS011;218;51.902;9.542;2024-02-26T05:45:20;3.80;;;2.13;;
462;SDS011;218;51.902;9.542;2024-02-26T05:47:49;3.75;;;1.88;;
462;SDS011;218;51.902;9.542;2024-02-26T05:50:16;3.00;;;1.70;;
462;SDS011;218;51.902;9.542;2024-02-26T05:52:44;3.13;;;1.60;;
462;SDS011;218;51.902;9.542;2024-02-26T05:55:11;5.00;;;1.80;;
462;SDS011;218;51.902;9.542;2024-02-26T05:57:39;2.75;;;1.80;;
462;SDS011;218;51.902;9.542;2024-02-26T06:00:07;5.95;;;1.85;;
462;SDS011;218;51.902;9.542;2024-02-26T06:02:34;7.40;;;1.90;;
462;SDS011;218;51.902;9.542;2024-02-26T06:05:03;3.42;;;1.60;;
462;SDS011;218;51.902;9.542;2024-02-26T06:07:32;6.30;;;2.40;;
462;SDS011;218;51.902;9.542;2024-02-26T06:09:59;5.63;;;1.95;;
462;SDS011;218;51.902;9.542;2024-02-26T06:12:27;1.70;;;1.37;;
462;SDS011;218;51.902;9.542;2024-02-26T06:14:55;4.60;;;1.90;;
462;SDS011;218;51.902;9.542;2024-02-26T06:17:26;3.47;;;1.87;;
462;SDS011;218;51.902;9.542;2024-02-26T06:19:54;2.13;;;1.57;;
462;SDS011;218;51.902;9.542;2024-02-26T06:22:22;6.90;;;1.90;;
462;SDS011;218;51.902;9.542;2024-02-26T06:24:49;3.08;;;1.40;;
462;SDS011;218;51.902;9.542;2024-02-26T06:27:17;2.50;;;1.70;;
462;SDS011;218;51.902;9.542;2024-02-26T06:29:44;2.63;;;2.07;;
462;SDS011;218;51.902;9.542;2024-02-26T06:32:11;4.72;;;1.83;;
462;SDS011;218;51.902;9.542;2024-02-26T06:34:39;2.27;;;1.30;;
462;SDS011;218;51.902;9.542;2024-02-26T06:37:07;4.80;;;1.65;;
462;SDS011;218;51.902;9.542;2024-02-26T06:39:36;5.18;;;1.85;;
462;SDS011;218;51.902;9.542;2024-02-26T06:42:03;2.60;;;1.73;;
462;SDS011;218;51.902;9.542;2024-02-26T06:44:31;2.75;;;1.50;;
462;SDS011;218;51.902;9.542;2024-02-26T06:46:58;3.37;;;2.07;;
462;SDS011;218;51.902;9.542;2024-02-26T06:49:26;2.40;;;1.50;;
462;SDS011;218;51.902;9.542;2024-02-26T06:51:54;5.33;;;1.90;;
462;SDS011;218;51.902;9.542;2024-02-26T06:54:21;3.65;;;1.55;;
462;SDS011;218;51.902;9.542;2024-02-26T06:56:49;2.83;;;1.80;;
462;SDS011;218;51.902;9.542;2024-02-26T06:59:17;9.07;;;2.10;;
462;SDS011;218;51.902;9.542;2024-02-26T07:01:45;5.03;;;2.83;;
462;SDS011;218;51.902;9.542;2024-02-26T07:04:13;8.98;;;1.98;;
462;SDS011;218;51.902;9.542;2024-02-26T07:06:40;2.20;;;1.40;;
462;SDS011;218;51.902;9.542;2024-02-26T07:09:08;3.20;;;1.80;;
462;SDS011;218;51.902;9.542;2024-02-26T07:11:37;3.10;;;1.40;;
462;SDS011;218;51.902;9.542;2024-02-26T07:14:08;4.27;;;1.90;;
462;SDS011;218;51.902;9.542;2024-02-26T07:16:35;3.20;;;2.20;;
462;SDS011;218;51.902;9.542;2024-02-26T07:19:02;5.10;;;2.00;;
462;SDS011;218;51.902;9.542;2024-02-26T07:21:30;6.50;;;2.23;;
462;SDS011;218;51.902;9.542;2024-02-26T07:23:57;2.30;;;1.40;;
462;SDS011;218;51.902;9.542;2024-02-26T07:26:25;5.60;;;2.20;;
462;SDS011;218;51.902;9.542;2024-02-26T07:28:52;1.67;;;1.40;;
462;SDS011;218;51.902;9.542;2024-02-26T07:31:20;3.90;;;1.60;;
462;SDS011;218;51.902;9.542;2024-02-26T07:33:48;4.53;;;1.67;;
462;SDS011;218;51.902;9.542;2024-02-26T07:36:15;2.90;;;1.73;;
462;SDS011;218;51.902;9.542;2024-02-26T07:38:43;4.90;;;1.50;;
462;SDS011;218;51.902;9.542;2024-02-26T07:41:10;3.83;;;1.60;;
462;SDS011;218;51.902;9.542;2024-02-26T07:43:39;1.57;;;1.40;;
462;SDS011;218;51.902;9.542;2024-02-26T07:46:07;3.00;;;1.83;;
462;SDS011;218;51.902;9.542;2024-02-26T07:48:35;4.20;;;1.90;;
462;SDS011;218;51.902;9.542;2024-02-26T07:51:03;1.60;;;1.50;;
462;SDS011;218;51.902;9.542;2024-02-26T07:53:31;3.53;;;1.50;;
462;SDS011;218;51.902;9.542;2024-02-26T07:55:58;2.87;;;1.30;;
462;SDS011;218;51.902;9.542;2024-02-26T07:58:25;6.37;;;1.70;;
462;SDS011;218;51.902;9.542;2024-02-26T08:00:52;3.57;;;1.70;;
462;SDS011;218;51.902;9.542;2024-02-26T08:03:20;4.53;;;1.50;;
462;SDS011;218;51.902;9.542;2024-02-26T08:05:50;13.40;;;2.40;;
462;SDS011;218;51.902;9.542;2024-02-26T08:08:17;4.33;;;2.80;;
462;SDS011;218;51.902;9.542;2024-02-26T08:10:45;3.53;;;2.13;;
462;SDS011;218;51.902;9.542;2024-02-26T08:13:12;3.55;;;2.50;;
462;SDS011;218;51.902;9.542;2024-02-26T08:15:40;4.77;;;2.40;;
462;SDS011;218;51.902;9.542;2024-02-26T08:18:07;4.90;;;2.90;;
462;SDS011;218;51.902;9.542;2024-02-26T08:20:34;3.88;;;2.30;;
462;SDS011;218;51.902;9.542;2024-02-26T08:23:05;7.75;;;2.20;;
462;SDS011;218;51.902;9.542;2024-02-26T08:25:33;5.25;;;3.15;;
462;SDS011;218;51.902;9.542;2024-02-26T08:28:00;4.30;;;2.20;;
462;SDS011;218;51.902;9.542;2024-02-26T08:30:28;6.00;;;2.80;;
462;SDS011;218;51.902;9.542;2024-02-26T08:32:55;5.70;;;3.15;;
462;SDS011;218;51.902;9.542;2024-02-26T08:35:22;7.65;;;3.10;;
462;SDS011;218;51.902;9.542;2024-02-26T08:37:49;7.75;;;2.20;;
462;SDS011;218;51.902;9.542;2024-02-26T08:40:18;6.97;;;2.20;;
462;SDS011;218;51.902;9.542;2024-02-26T08:42:45;2.80;;;2.30;;
462;SDS011;218;51.902;9.542;2024-02-26T08:45:13;4.47;;;2.30;;
462;SDS011;218;51.902;9.542;2024-02-26T08:47:41;4.90;;;2.40;;
462;SDS011;218;51.902;9.542;2024-02-26T08:50:08;4.23;;;1.80;;
462;SDS011;218;51.902;9.542;2024-02-26T08:52:37;5.03;;;1.90;;
462;SDS011;218;51.902;9.542;2024-02-26T08:55:05;3.07;;;1.67;;
462;SDS011;218;51.902;9.542;2024-02-26T08:57:35;3.00;;;2.17;;
462;SDS011;218;51.902;9.542;2024-02-26T09:00:04;5.53;;;2.43;;
462;SDS011;218;51.902;9.542;2024-02-26T09:02:33;2.97;;;1.80;;
462;SDS011;218;51.902;9.542;2024-02-26T09:05:00;6.80;;;2.97;;
462;SDS011;218;51.902;9.542;2024-02-26T09:07:27;9.63;;;2.00;;
462;SDS011;218;51.902;9.542;2024-02-26T09:09:54;6.63;;;2.03;;
462;SDS011;218;51.902;9.542;2024-02-26T09:12:22;7.20;;;2.80;;
462;SDS011;218;51.902;9.542;2024-02-26T09:14:50;7.63;;;2.47;;
462;SDS011;218;51.902;9.542;2024-02-26T09:17:18;3.77;;;1.83;;
462;SDS011;218;51.902;9.542;2024-02-26T09:19:45;6.60;;;2.87;;
462;SDS011;218;51.902;9.542;2024-02-26T09:22:13;7.13;;;2.92;;
462;SDS011;218;51.902;9.542;2024-02-26T09:24:40;6.33;;;3.37;;
462;SDS011;218;51.902;9.542;2024-02-26T09:27:07;7.10;;;2.20;;
462;SDS011;218;51.902;9.542;2024-02-26T09:29:35;3.00;;;1.90;;
462;SDS011;218;51.902;9.542;2024-02-26T09:32:04;3.40;;;1.83;;
462;SDS011;218;51.902;9.542;2024-02-26T09:34:31;21.45;;;3.92;;
462;SDS011;218;51.902;9.542;2024-02-26T09:36:58;9.77;;;3.43;;
462;SDS011;218;51.902;9.542;2024-02-26T09:39:27;16.13;;;4.80;;
462;SDS011;218;51.902;9.542;2024-02-26T09:41:54;14.20;;;4.40;;
462;SDS011;218;51.902;9.542;2024-02-26T09:44:22;16.40;;;4.33;;
462;SDS011;218;51.902;9.542;2024-02-26T09:46:51;14.30;;;4.27;;
462;SDS011;218;51.902;9.542;2024-02-26T09:49:21;14.20;;;3.53;;
462;SDS011;218;51.902;9.542;2024-02-26T09:51:49;7.43;;;3.20;;
462;SDS011;218;51.902;9.542;2024-02-26T09:54:16;7.27;;;3.17;;
462;SDS011;218;51.902;9.542;2024-02-26T09:56:43;10.60;;;4.07;;
462;SDS011;218;51.902;9.542;2024-02-26T09:59:15;8.50;;;4.40;;
462;SDS011;218;51.902;9.542;2024-02-26T10:01:44;9.80;;;3.30;;
462;SDS011;218;51.902;9.542;2024-02-26T10:04:11;9.82;;;3.30;;
462;SDS011;218;51.902;9.542;2024-02-26T10:06:41;14.77;;;3.50;;
462;SDS011;218;51.902;9.542;2024-02-26T10:09:09;9.20;;;3.67;;
462;SDS011;218;51.902;9.542;2024-02-26T10:11:37;10.20;;;3.60;;
462;SDS011;218;51.902;9.542;2024-02-26T10:14:05;4.63;;;3.10;;
462;SDS011;218;51.902;9.542;2024-02-26T10:16:32;7.97;;;2.90;;
462;SDS011;218;51.902;9.542;2024-02-26T10:19:00;5.90;;;2.23;;
462;SDS011;218;51.902;9.542;2024-02-26T10:21:27;11.70;;;4.20;;
462;SDS011;218;51.902;9.542;2024-02-26T10:23:56;11.27;;;3.10;;
462;SDS011;218;51.902;9.542;2024-02-26T10:26:23;7.17;;;3.20;;
462;SDS011;218;51.902;9.542;2024-02-26T10:28:51;7.33;;;3.27;;
462;SDS011;218;51.902;9.542;2024-02-26T10:31:18;5.22;;;2.40;;
462;SDS011;218;51.902;9.542;2024-02-26T10:33:45;5.53;;;3.10;;
462;SDS011;218;51.902;9.542;2024-02-26T10:36:12;11.10;;;2.88;;
462;SDS011;218;51.902;9.542;2024-02-26T10:38:39;4.27;;;2.50;;
462;SDS011;218;51.902;9.542;2024-02-26T10:41:13;7.57;;;2.60;;
462;SDS011;218;51.902;9.542;2024-02-26T10:43:41;8.10;;;2.30;;
462;SDS011;218;51.902;9.542;2024-02-26T10:46:09;5.93;;;2.72;;
462;SDS011;218;51.902;9.542;2024-02-26T10:48:36;6.00;;;2.77;;
462;SDS011;218;51.902;9.542;2024-02-26T10:51:07;5.20;;;2.47;;
462;SDS011;218;51.902;9.542;2024-02-26T10:53:36;6.47;;;2.60;;
462;SDS011;218;51.902;9.542;2024-02-26T10:56:04;6.83;;;2.83;;
462;SDS011;218;51.902;9.542;2024-02-26T10:58:33;11.27;;;3.10;;
462;SDS011;218;51.902;9.542;2024-02-26T11:01:00;3.27;;;2.97;;
462;SDS011;218;51.902;9.542;2024-02-26T11:03:30;7.07;;;2.80;;
462;SDS011;218;51.902;9.542;2024-02-26T11:06:00;4.00;;;2.83;;
462;SDS011;218;51.902;9.542;2024-02-26T11:08:28;5.25;;;2.50;;
462;SDS011;218;51.902;9.542;2024-02-26T11:10:55;5.27;;;2.00;;
462;SDS011;218;51.902;9.542;2024-02-26T11:13:23;2.27;;;2.00;;
462;SDS011;218;51.902;9.542;2024-02-26T11:15:56;4.00;;;2.33;;
462;SDS011;218;51.902;9.542;2024-02-26T11:18:23;4.13;;;2.23;;
462;SDS011;218;51.902;9.542;2024-02-26T11:20:54;3.15;;;2.30;;
462;SDS011;218;51.902;9.542;2024-02-26T11:23:22;12.53;;;3.60;;
462;SDS011;218;51.902;9.542;2024-02-26T11:25:50;15.05;;;4.45;;
462;SDS011;218;51.902;9.542;2024-02-26T11:28:18;11.73;;;3.90;;
462;SDS011;218;51.902;9.542;2024-02-26T11:30:47;9.37;;;5.10;;
462;SDS011;218;51.902;9.542;2024-02-26T11:33:16;15.13;;;3.53;;
462;SDS011;218;51.902;9.542;2024-02-26T11:35:43;10.60;;;3.33;;
462;SDS011;218;51.902;9.542;2024-02-26T11:38:16;8.20;;;3.40;;
462;SDS011;218;51.902;9.542;2024-02-26T11:40:44;12.73;;;4.33;;
462;SDS011;218;51.902;9.542;2024-02-26T11:43:11;7.67;;;3.50;;
462;SDS011;218;51.902;9.542;2024-02-26T11:45:48;7.00;;;3.43;;
462;SDS011;218;51.902;9.542;2024-02-26T11:48:21;13.00;;;3.83;;
462;SDS011;218;51.902;9.542;2024-02-26T11:50:50;7.53;;;4.50;;
462;SDS011;218;51.902;9.542;2024-02-26T11:53:21;6.43;;;3.00;;
462;SDS011;218;51.902;9.542;2024-02-26T11:58:38;13.55;;;3.60;;
462;SDS011;218;51.902;9.542;2024-02-26T12:01:08;6.73;;;3.57;;
462;SDS011;218;51.902;9.542;2024-02-26T12:03:56;7.03;;;3.17;;
462;SDS011;218;51.902;9.542;2024-02-26T12:06:23;10.23;;;3.05;;
462;SDS011;218;51.902;9.542;2024-02-26T12:08:52;8.30;;;3.03;;
462;SDS011;218;51.902;9.542;2024-02-26T12:11:19;7.87;;;3.00;;
462;SDS011;218;51.902;9.542;2024-02-26T12:13:47;9.27;;;3.10;;
462;SDS011;218;51.902;9.542;2024-02-26T12:18:59;8.50;;;2.80;;
462;SDS011;218;51.902;9.542;2024-02-26T12:21:26;5.07;;;2.55;;
462;SDS011;218;51.902;9.542;2024-02-26T12:23:54;8.77;;;3.58;;
462;SDS011;218;51.902;9.542;2024-02-26T12:26:21;5.25;;;3.08;;
462;SDS011;218;51.902;9.542;2024-02-26T12:28:48;7.97;;;3.57;;
462;SDS011;218;51.902;9.542;2024-02-26T12:31:17;5.95;;;2.33;;
462;SDS011;218;51.902;9.542;2024-02-26T12:33:44;6.20;;;3.03;;
462;SDS011;218;51.902;9.542;2024-02-26T12:36:13;9.68;;;3.35;;
462;SDS011;218;51.902;9.542;2024-02-26T12:38:40;9.95;;;2.90;;
462;SDS011;218;51.902;9.542;2024-02-26T12:41:07;14.13;;;3.33;;
462;SDS011;218;51.902;9.542;2024-02-26T12:43:34;11.40;;;4.03;;
462;SDS011;218;51.902;9.542;2024-02-26T12:46:02;6.60;;;3.00;;
462;SDS011;218;51.902;9.542;2024-02-26T12:48:30;8.10;;;3.00;;
462;SDS011;218;51.902;9.542;2024-02-26T12:50:57;6.37;;;2.07;;
462;SDS011;218;51.902;9.542;2024-02-26T12:53:26;10.00;;;3.87;;
462;SDS011;218;51.902;9.542;2024-02-26T12:55:53;3.33;;;2.92;;
462;SDS011;218;51.902;9.542;2024-02-26T12:58:21;8.67;;;2.37;;
462;SDS011;218;51.902;9.542;2024-02-26T13:00:50;9.40;;;3.30;;
462;SDS011;218;51.902;9.542;2024-02-26T13:03:18;6.87;;;3.07;;
462;SDS011;218;51.902;9.542;2024-02-26T13:05:45;7.20;;;2.80;;
462;SDS011;218;51.902;9.542;2024-02-26T13:08:16;7.30;;;3.00;;
462;SDS011;218;51.902;9.542;2024-02-26T13:10:46;10.20;;;3.20;;
462;SDS011;218;51.902;9.542;2024-02-26T13:13:14;6.13;;;2.72;;
462;SDS011;218;51.902;9.542;2024-02-26T13:15:42;8.00;;;2.80;;
462;SDS011;218;51.902;9.542;2024-02-26T13:18:10;7.97;;;2.85;;
462;SDS011;218;51.902;9.542;2024-02-26T13:20:37;8.73;;;2.90;;
462;SDS011;218;51.902;9.542;2024-02-26T13:23:06;9.30;;;2.85;;
462;SDS011;218;51.902;9.542;2024-02-26T13:25:34;5.90;;;3.53;;
462;SDS011;218;51.902;9.542;2024-02-26T13:28:07;6.30;;;2.50;;
462;SDS011;218;51.902;9.542;2024-02-26T13:30:34;6.03;;;2.88;;
462;SDS011;218;51.902;9.542;2024-02-26T13:33:08;7.20;;;3.00;;
462;SDS011;218;51.902;9.542;2024-02-26T13:35:36;4.03;;;2.77;;
462;SDS011;218;51.902;9.542;2024-02-26T13:38:04;4.85;;;2.22;;
462;SDS011;218;51.902;9.542;2024-02-26T13:40:31;5.05;;;2.28;;
462;SDS011;218;51.902;9.542;2024-02-26T13:42:59;5.13;;;2.25;;
462;SDS011;218;51.902;9.542;2024-02-26T13:45:28;5.20;;;2.10;;
462;SDS011;218;51.902;9.542;2024-02-26T13:47:59;6.53;;;2.20;;
462;SDS011;218;51.902;9.542;2024-02-26T13:50:28;5.57;;;2.47;;
462;SDS011;218;51.902;9.542;2024-02-26T13:52:55;4.80;;;2.27;;
462;SDS011;218;51.902;9.542;2024-02-26T13:55:23;10.48;;;2.58;;
462;SDS011;218;51.902;9.542;2024-02-26T13:57:51;3.87;;;2.03;;
462;SDS011;218;51.902;9.542;2024-02-26T14:00:19;6.35;;;2.65;;
462;SDS011;218;51.902;9.542;2024-02-26T14:02:48;4.60;;;2.67;;
462;SDS011;218;51.902;9.542;2024-02-26T14:05:15;4.40;;;2.50;;
462;SDS011;218;51.902;9.542;2024-02-26T14:07:43;7.20;;;2.42;;
462;SDS011;218;51.902;9.542;2024-02-26T14:10:11;5.93;;;2.07;;
462;SDS011;218;51.902;9.542;2024-02-26T14:12:39;12.55;;;2.88;;
462;SDS011;218;51.902;9.542;2024-02-26T14:15:06;5.13;;;2.03;;
462;SDS011;218;51.902;9.542;2024-02-26T14:17:34;8.03;;;3.20;;
462;SDS011;218;51.902;9.542;2024-02-26T14:20:04;8.73;;;2.27;;
462;SDS011;218;51.902;9.542;2024-02-26T14:22:32;8.77;;;2.38;;
462;SDS011;218;51.902;9.542;2024-02-26T14:25:00;10.60;;;2.70;;
462;SDS011;218;51.902;9.542;2024-02-26T14:27:27;17.75;;;3.20;;
462;SDS011;218;51.902;9.542;2024-02-26T14:29:54;10.03;;;3.20;;
462;SDS011;218;51.902;9.542;2024-02-26T14:32:21;11.97;;;3.67;;
462;SDS011;218;51.902;9.542;2024-02-26T14:34:49;9.37;;;2.87;;
462;SDS011;218;51.902;9.542;2024-02-26T14:37:17;8.52;;;3.80;;
462;SDS011;218;51.902;9.542;2024-02-26T14:39:44;14.93;;;4.73;;
462;SDS011;218;51.902;9.542;2024-02-26T14:42:13;12.98;;;4.32;;
462;SDS011;218;51.902;9.542;2024-02-26T14:44:42;8.95;;;4.18;;
462;SDS011;218;51.902;9.542;2024-02-26T14:47:11;6.43;;;4.93;;
462;SDS011;218;51.902;9.542;2024-02-26T14:49:38;10.43;;;4.00;;
462;SDS011;218;51.902;9.542;2024-02-26T14:52:05;6.35;;;4.28;;
462;SDS011;218;51.902;9.542;2024-02-26T14:54:34;8.15;;;3.95;;
462;SDS011;218;51.902;9.542;2024-02-26T14:57:04;5.95;;;3.60;;
462;SDS011;218;51.902;9.542;2024-02-26T14:59:31;7.45;;;4.45;;
462;SDS011;218;51.902;9.542;2024-02-26T15:01:59;4.78;;;3.80;;
462;SDS011;218;51.902;9.542;2024-02-26T15:04:26;5.78;;;4.10;;
462;SDS011;218;51.902;9.542;2024-02-26T15:06:53;4.50;;;3.67;;
462;SDS011;218;51.902;9.542;2024-02-26T15:09:21;6.65;;;4.82;;
462;SDS011;218;51.902;9.542;2024-02-26T15:11:50;6.38;;;4.10;;
462;SDS011;218;51.902;9.542;2024-02-26T15:14:17;5.88;;;4.80;;
462;SDS011;218;51.902;9.542;2024-02-26T15:16:44;8.15;;;3.72;;
462;SDS011;218;51.902;9.542;2024-02-26T15:19:12;4.70;;;3.75;;
462;SDS011;218;51.902;9.542;2024-02-26T15:21:42;5.40;;;3.67;;
462;SDS011;218;51.902;9.542;2024-02-26T15:24:10;4.82;;;3.80;;
462;SDS011;218;51.902;9.542;2024-02-26T15:26:37;5.63;;;5.03;;
462;SDS011;218;51.902;9.542;2024-02-26T15:29:06;4.00;;;3.60;;
462;SDS011;218;51.902;9.542;2024-02-26T15:31:34;3.90;;;3.50;;
462;SDS011;218;51.902;9.542;2024-02-26T15:34:02;4.10;;;3.70;;
462;SDS011;218;51.902;9.542;2024-02-26T15:36:29;4.07;;;3.67;;
462;SDS011;218;51.902;9.542;2024-02-26T15:38:56;5.20;;;3.90;;
462;SDS011;218;51.902;9.542;2024-02-26T15:41:23;4.53;;;4.10;;
462;SDS011;218;51.902;9.542;2024-02-26T15:43:51;3.70;;;3.40;;
462;SDS011;218;51.902;9.542;2024-02-26T15:46:19;4.43;;;4.00;;
462;SDS011;218;51.902;9.542;2024-02-26T15:48:47;5.40;;;4.90;;
462;SDS011;218;51.902;9.542;2024-02-26T15:51:18;3.72;;;3.33;;